sensor_id;sensor_type;location;lat;lon;timestamp;temperature;humidity
6256;DHT22;3161;48.794;9.784;2023-12-22T00:02:03;6.80;99.90
6256;DHT22;3161;48.794;9.784;2023-12-22T00:04:31;6.80;99.90
6256;DHT22;3161;48.794;9.784;2023-12-22T00:06:58;6.80;99.90
6256;DHT22;3161;48.794;9.784;2023-12-22T00:09:26;6.80;99.90
6256;DHT22;3161;48.794;9.784;2023-12-22T00:11:53;6.90;99.90
6256;DHT22;3161;48.794;9.784;2023-12-22T00:14:21;6.90;99.90
6256;DHT22;3161;48.794;9.784;2023-12-22T00:16:48;6.80;99.90
6256;DHT22;3161;48.794;9.784;2023-12-22T00:19:16;6.80;99.90
6256;DHT22;3161;48.794;9.784;2023-12-22T00:21:43;6.80;99.90
6256;DHT22;3161;48.794;9.784;2023-12-22T00:24:11;6.80;99.90
6256;DHT22;3161;48.794;9.784;2023-12-22T00:26:38;6.80;99.90
6256;DHT22;3161;48.794;9.784;2023-12-22T00:29:06;6.90;99.90
6256;DHT22;3161;48.794;9.784;2023-12-22T00:31:33;6.90;99.90
6256;DHT22;3161;48.794;9.784;2023-12-22T00:34:01;6.90;99.90
6256;DHT22;3161;48.794;9.784;2023-12-22T00:36:28;6.90;99.90
6256;DHT22;3161;48.794;9.784;2023-12-22T00:38:56;6.90;99.90
6256;DHT22;3161;48.794;9.784;2023-12-22T00:41:23;6.90;99.90
6256;DHT22;3161;48.794;9.784;2023-12-22T00:43:51;6.90;99.90
6256;DHT22;3161;48.794;9.784;2023-12-22T00:46:18;6.90;99.90
6256;DHT22;3161;48.794;9.784;2023-12-22T00:48:46;6.80;99.90
6256;DHT22;3161;48.794;9.784;2023-12-22T00:51:14;6.80;99.90
6256;DHT22;3161;48.794;9.784;2023-12-22T00:53:42;6.70;99.90
6256;DHT22;3161;48.794;9.784;2023-12-22T00:56:10;6.70;99.90
6256;DHT22;3161;48.794;9.784;2023-12-22T00:58:40;6.60;99.90
6256;DHT22;3161;48.794;9.784;2023-12-22T01:01:07;6.50;99.90
6256;DHT22;3161;48.794;9.784;2023-12-22T01:03:35;6.40;99.90
6256;DHT22;3161;48.794;9.784;2023-12-22T01:06:03;6.40;99.90
6256;DHT22;3161;48.794;9.784;2023-12-22T01:08:30;6.30;99.90
6256;DHT22;3161;48.794;9.784;2023-12-22T01:10:58;6.20;99.90
6256;DHT22;3161;48.794;9.784;2023-12-22T01:13:26;6.10;99.90
6256;DHT22;3161;48.794;9.784;2023-12-22T01:15:53;6.00;99.90
6256;DHT22;3161;48.794;9.784;2023-12-22T01:18:21;5.90;99.90
6256;DHT22;3161;48.794;9.784;2023-12-22T01:20:48;5.90;99.90
6256;DHT22;3161;48.794;9.784;2023-12-22T01:23:16;5.80;99.90
6256;DHT22;3161;48.794;9.784;2023-12-22T01:25:43;5.80;99.90
6256;DHT22;3161;48.794;9.784;2023-12-22T01:28:11;5.70;99.90
6256;DHT22;3161;48.794;9.784;2023-12-22T01:30:38;5.70;99.90
6256;DHT22;3161;48.794;9.784;2023-12-22T01:33:06;5.60;99.90
6256;DHT22;3161;48.794;9.784;2023-12-22T01:35:33;5.60;99.90
6256;DHT22;3161;48.794;9.784;2023-12-22T01:38:01;5.50;99.90
6256;DHT22;3161;48.794;9.784;2023-12-22T01:40:28;5.50;99.90
6256;DHT22;3161;48.794;9.784;2023-12-22T01:42:56;5.50;99.90
6256;DHT22;3161;48.794;9.784;2023-12-22T01:45:24;5.50;99.90
6256;DHT22;3161;48.794;9.784;2023-12-22T01:47:51;5.50;99.90
6256;DHT22;3161;48.794;9.784;2023-12-22T01:50:20;5.50;99.90
6256;DHT22;3161;48.794;9.784;2023-12-22T01:52:48;5.50;99.90
6256;DHT22;3161;48.794;9.784;2023-12-22T01:55:16;5.50;99.90
6256;DHT22;3161;48.794;9.784;2023-12-22T01:57:45;5.60;99.90
6256;DHT22;3161;48.794;9.784;2023-12-22T02:00:14;5.60;99.90
6256;DHT22;3161;48.794;9.784;2023-12-22T02:02:42;5.60;99.90
6256;DHT22;3161;48.794;9.784;2023-12-22T02:05:09;5.70;99.90
6256;DHT22;3161;48.794;9.784;2023-12-22T02:07:43;5.60;99.90
6256;DHT22;3161;48.794;9.784;2023-12-22T02:10:11;5.70;99.90
6256;DHT22;3161;48.794;9.784;2023-12-22T02:12:38;5.70;99.90
6256;DHT22;3161;48.794;9.784;2023-12-22T02:15:07;5.70;99.90
6256;DHT22;3161;48.794;9.784;2023-12-22T02:17:43;5.70;99.90
6256;DHT22;3161;48.794;9.784;2023-12-22T02:20:10;5.70;99.90
6256;DHT22;3161;48.794;9.784;2023-12-22T02:22:38;5.70;99.90
6256;DHT22;3161;48.794;9.784;2023-12-22T02:25:06;5.70;99.90
6256;DHT22;3161;48.794;9.784;2023-12-22T02:30:15;5.70;99.90
6256;DHT22;3161;48.794;9.784;2023-12-22T02:32:46;5.70;99.90
6256;DHT22;3161;48.794;9.784;2023-12-22T02:35:21;5.70;99.90
6256;DHT22;3161;48.794;9.784;2023-12-22T02:37:50;5.80;99.90
6256;DHT22;3161;48.794;9.784;2023-12-22T02:40:19;5.80;99.90
6256;DHT22;3161;48.794;9.784;2023-12-22T02:42:47;5.80;99.90
6256;DHT22;3161;48.794;9.784;2023-12-22T02:45:17;5.80;99.90
6256;DHT22;3161;48.794;9.784;2023-12-22T02:47:45;5.80;99.90
6256;DHT22;3161;48.794;9.784;2023-12-22T02:50:15;5.90;99.90
6256;DHT22;3161;48.794;9.784;2023-12-22T02:52:43;6.00;99.90
6256;DHT22;3161;48.794;9.784;2023-12-22T02:55:11;6.10;99.90
6256;DHT22;3161;48.794;9.784;2023-12-22T02:57:38;6.10;99.90
6256;DHT22;3161;48.794;9.784;2023-12-22T03:00:07;6.20;99.90
6256;DHT22;3161;48.794;9.784;2023-12-22T03:02:34;6.30;99.90
6256;DHT22;3161;48.794;9.784;2023-12-22T03:05:02;6.40;99.90
6256;DHT22;3161;48.794;9.784;2023-12-22T03:07:30;6.40;99.90
6256;DHT22;3161;48.794;9.784;2023-12-22T03:09:57;6.40;99.90
6256;DHT22;3161;48.794;9.784;2023-12-22T03:12:25;6.50;99.90
6256;DHT22;3161;48.794;9.784;2023-12-22T03:14:52;6.60;99.90
6256;DHT22;3161;48.794;9.784;2023-12-22T03:17:20;6.70;99.90
6256;DHT22;3161;48.794;9.784;2023-12-22T03:19:47;6.70;99.90
6256;DHT22;3161;48.794;9.784;2023-12-22T03:22:15;6.70;99.90
6256;DHT22;3161;48.794;9.784;2023-12-22T03:24:43;6.80;99.90
6256;DHT22;3161;48.794;9.784;2023-12-22T03:27:11;6.90;99.90
6256;DHT22;3161;48.794;9.784;2023-12-22T03:29:40;6.90;99.90
6256;DHT22;3161;48.794;9.784;2023-12-22T03:32:07;7.00;99.90
6256;DHT22;3161;48.794;9.784;2023-12-22T03:34:35;7.00;99.90
6256;DHT22;3161;48.794;9.784;2023-12-22T03:37:03;7.00;99.90
6256;DHT22;3161;48.794;9.784;2023-12-22T03:39:30;7.00;99.90
6256;DHT22;3161;48.794;9.784;2023-12-22T03:41:58;7.00;99.90
6256;DHT22;3161;48.794;9.784;2023-12-22T03:44:25;7.00;99.90
6256;DHT22;3161;48.794;9.784;2023-12-22T03:46:54;7.10;99.90
6256;DHT22;3161;48.794;9.784;2023-12-22T03:49:22;7.10;99.90
6256;DHT22;3161;48.794;9.784;2023-12-22T03:51:49;7.20;99.90
6256;DHT22;3161;48.794;9.784;2023-12-22T03:54:17;7.20;99.90
6256;DHT22;3161;48.794;9.784;2023-12-22T03:56:45;7.20;99.90
6256;DHT22;3161;48.794;9.784;2023-12-22T03:59:12;7.30;99.90
6256;DHT22;3161;48.794;9.784;2023-12-22T04:01:40;7.30;99.90
6256;DHT22;3161;48.794;9.784;2023-12-22T04:04:08;7.40;99.90
6256;DHT22;3161;48.794;9.784;2023-12-22T04:06:39;7.40;99.90
6256;DHT22;3161;48.794;9.784;2023-12-22T04:09:07;7.50;99.90
6256;DHT22;3161;48.794;9.784;2023-12-22T04:11:34;7.50;99.90
6256;DHT22;3161;48.794;9.784;2023-12-22T04:14:03;7.50;99.90
6256;DHT22;3161;48.794;9.784;2023-12-22T04:16:31;7.60;99.90
6256;DHT22;3161;48.794;9.784;2023-12-22T04:18:58;7.60;99.90
6256;DHT22;3161;48.794;9.784;2023-12-22T04:21:26;7.60;99.90
6256;DHT22;3161;48.794;9.784;2023-12-22T04:23:53;7.60;99.90
6256;DHT22;3161;48.794;9.784;2023-12-22T04:26:21;7.60;99.90
6256;DHT22;3161;48.794;9.784;2023-12-22T04:28:49;7.60;99.90
6256;DHT22;3161;48.794;9.784;2023-12-22T04:31:16;7.60;99.90
6256;DHT22;3161;48.794;9.784;2023-12-22T04:33:44;7.60;99.90
6256;DHT22;3161;48.794;9.784;2023-12-22T04:36:11;7.60;99.90
6256;DHT22;3161;48.794;9.784;2023-12-22T04:38:39;7.60;99.90
6256;DHT22;3161;48.794;9.784;2023-12-22T04:41:07;7.60;99.90
6256;DHT22;3161;48.794;9.784;2023-12-22T04:43:35;7.40;99.90
6256;DHT22;3161;48.794;9.784;2023-12-22T04:46:02;7.20;99.90
6256;DHT22;3161;48.794;9.784;2023-12-22T04:48:30;7.10;99.90
6256;DHT22;3161;48.794;9.784;2023-12-22T04:50:59;7.00;99.90
6256;DHT22;3161;48.794;9.784;2023-12-22T04:53:27;6.80;99.90
6256;DHT22;3161;48.794;9.784;2023-12-22T04:55:54;6.60;99.90
6256;DHT22;3161;48.794;9.784;2023-12-22T04:58:22;6.50;99.90
6256;DHT22;3161;48.794;9.784;2023-12-22T05:00:50;6.30;99.90
6256;DHT22;3161;48.794;9.784;2023-12-22T05:03:18;6.30;99.90
6256;DHT22;3161;48.794;9.784;2023-12-22T05:05:45;6.20;99.90
6256;DHT22;3161;48.794;9.784;2023-12-22T05:08:13;6.10;99.90
6256;DHT22;3161;48.794;9.784;2023-12-22T05:10:42;6.10;99.90
6256;DHT22;3161;48.794;9.784;2023-12-22T05:13:09;6.10;99.90
6256;DHT22;3161;48.794;9.784;2023-12-22T05:15:37;6.10;99.90
6256;DHT22;3161;48.794;9.784;2023-12-22T05:18:04;6.10;99.90
6256;DHT22;3161;48.794;9.784;2023-12-22T05:20:32;6.10;99.90
6256;DHT22;3161;48.794;9.784;2023-12-22T05:23:00;6.10;99.90
6256;DHT22;3161;48.794;9.784;2023-12-22T05:25:27;6.10;99.90
6256;DHT22;3161;48.794;9.784;2023-12-22T05:27:55;6.20;99.90
6256;DHT22;3161;48.794;9.784;2023-12-22T05:30:23;6.20;99.90
6256;DHT22;3161;48.794;9.784;2023-12-22T05:32:50;6.20;99.90
6256;DHT22;3161;48.794;9.784;2023-12-22T05:35:18;6.20;99.90
6256;DHT22;3161;48.794;9.784;2023-12-22T05:37:45;6.20;99.90
6256;DHT22;3161;48.794;9.784;2023-12-22T05:40:14;6.20;99.90
6256;DHT22;3161;48.794;9.784;2023-12-22T05:42:42;6.30;99.90
6256;DHT22;3161;48.794;9.784;2023-12-22T05:45:09;6.30;99.90
6256;DHT22;3161;48.794;9.784;2023-12-22T05:47:38;6.40;99.90
6256;DHT22;3161;48.794;9.784;2023-12-22T05:50:06;6.40;99.90
6256;DHT22;3161;48.794;9.784;2023-12-22T05:52:34;6.50;99.90
6256;DHT22;3161;48.794;9.784;2023-12-22T05:55:02;6.60;99.90
6256;DHT22;3161;48.794;9.784;2023-12-22T05:57:30;6.60;99.90
6256;DHT22;3161;48.794;9.784;2023-12-22T05:59:57;6.70;99.90
6256;DHT22;3161;48.794;9.784;2023-12-22T06:02:25;6.70;99.90
6256;DHT22;3161;48.794;9.784;2023-12-22T06:04:53;6.70;99.90
6256;DHT22;3161;48.794;9.784;2023-12-22T06:07:20;6.80;99.90
6256;DHT22;3161;48.794;9.784;2023-12-22T06:09:48;6.70;99.90
6256;DHT22;3161;48.794;9.784;2023-12-22T06:12:15;6.60;99.90
6256;DHT22;3161;48.794;9.784;2023-12-22T06:14:43;6.50;99.90
6256;DHT22;3161;48.794;9.784;2023-12-22T06:17:10;6.40;99.90
6256;DHT22;3161;48.794;9.784;2023-12-22T06:19:38;6.40;99.90
6256;DHT22;3161;48.794;9.784;2023-12-22T06:22:05;6.30;99.90
6256;DHT22;3161;48.794;9.784;2023-12-22T06:24:35;6.30;99.90
6256;DHT22;3161;48.794;9.784;2023-12-22T06:27:03;6.40;99.90
6256;DHT22;3161;48.794;9.784;2023-12-22T06:29:30;6.40;99.90
6256;DHT22;3161;48.794;9.784;2023-12-22T06:31:58;6.50;99.90
6256;DHT22;3161;48.794;9.784;2023-12-22T06:34:25;6.50;99.90
6256;DHT22;3161;48.794;9.784;2023-12-22T06:36:53;6.50;99.90
6256;DHT22;3161;48.794;9.784;2023-12-22T06:39:20;6.60;99.90
6256;DHT22;3161;48.794;9.784;2023-12-22T06:41:48;6.60;99.90
6256;DHT22;3161;48.794;9.784;2023-12-22T06:44:15;6.70;99.90
6256;DHT22;3161;48.794;9.784;2023-12-22T06:46:43;6.70;99.90
6256;DHT22;3161;48.794;9.784;2023-12-22T06:49:11;6.70;99.90
6256;DHT22;3161;48.794;9.784;2023-12-22T06:51:38;6.70;99.90
6256;DHT22;3161;48.794;9.784;2023-12-22T06:54:06;6.80;99.90
6256;DHT22;3161;48.794;9.784;2023-12-22T06:56:34;6.80;99.90
6256;DHT22;3161;48.794;9.784;2023-12-22T06:59:02;6.80;99.90
6256;DHT22;3161;48.794;9.784;2023-12-22T07:01:31;6.90;99.90
6256;DHT22;3161;48.794;9.784;2023-12-22T07:04:01;6.90;99.90
6256;DHT22;3161;48.794;9.784;2023-12-22T07:06:31;6.90;99.90
6256;DHT22;3161;48.794;9.784;2023-12-22T07:11:50;6.80;99.90
6256;DHT22;3161;48.794;9.784;2023-12-22T07:14:19;6.80;99.90
6256;DHT22;3161;48.794;9.784;2023-12-22T07:16:46;6.90;99.90
6256;DHT22;3161;48.794;9.784;2023-12-22T07:19:14;6.90;99.90
6256;DHT22;3161;48.794;9.784;2023-12-22T07:21:42;6.90;99.90
6256;DHT22;3161;48.794;9.784;2023-12-22T07:24:09;6.90;99.90
6256;DHT22;3161;48.794;9.784;2023-12-22T07:26:37;6.90;99.90
6256;DHT22;3161;48.794;9.784;2023-12-22T07:29:04;7.00;99.90
6256;DHT22;3161;48.794;9.784;2023-12-22T07:31:32;7.10;99.90
6256;DHT22;3161;48.794;9.784;2023-12-22T07:33:59;7.10;99.90
6256;DHT22;3161;48.794;9.784;2023-12-22T07:36:27;7.10;99.90
6256;DHT22;3161;48.794;9.784;2023-12-22T07:38:54;7.10;99.90
6256;DHT22;3161;48.794;9.784;2023-12-22T07:41:23;7.20;99.90
6256;DHT22;3161;48.794;9.784;2023-12-22T07:43:51;7.20;99.90
6256;DHT22;3161;48.794;9.784;2023-12-22T07:46:21;7.30;99.90
6256;DHT22;3161;48.794;9.784;2023-12-22T07:48:49;7.30;99.90
6256;DHT22;3161;48.794;9.784;2023-12-22T07:51:17;7.30;99.90
6256;DHT22;3161;48.794;9.784;2023-12-22T07:53:44;7.30;99.90
6256;DHT22;3161;48.794;9.784;2023-12-22T07:56:12;7.40;99.90
6256;DHT22;3161;48.794;9.784;2023-12-22T07:58:40;7.50;99.90
6256;DHT22;3161;48.794;9.784;2023-12-22T08:01:07;7.50;99.90
6256;DHT22;3161;48.794;9.784;2023-12-22T08:03:35;7.50;99.90
6256;DHT22;3161;48.794;9.784;2023-12-22T08:06:04;7.50;99.90
6256;DHT22;3161;48.794;9.784;2023-12-22T08:08:31;7.60;99.90
6256;DHT22;3161;48.794;9.784;2023-12-22T08:11:00;7.60;99.90
6256;DHT22;3161;48.794;9.784;2023-12-22T08:13:27;7.60;99.90
6256;DHT22;3161;48.794;9.784;2023-12-22T08:15:55;7.60;99.90
6256;DHT22;3161;48.794;9.784;2023-12-22T08:18:22;7.70;99.90
6256;DHT22;3161;48.794;9.784;2023-12-22T08:20:50;7.70;99.90
6256;DHT22;3161;48.794;9.784;2023-12-22T08:23:17;7.60;99.90
6256;DHT22;3161;48.794;9.784;2023-12-22T08:25:45;7.60;99.90
6256;DHT22;3161;48.794;9.784;2023-12-22T08:28:12;7.70;99.90
6256;DHT22;3161;48.794;9.784;2023-12-22T08:30:40;7.70;99.90
6256;DHT22;3161;48.794;9.784;2023-12-22T08:33:08;7.80;99.90
6256;DHT22;3161;48.794;9.784;2023-12-22T08:35:36;7.80;99.90
6256;DHT22;3161;48.794;9.784;2023-12-22T08:38:04;7.80;99.90
6256;DHT22;3161;48.794;9.784;2023-12-22T08:40:32;7.80;99.90
6256;DHT22;3161;48.794;9.784;2023-12-22T08:42:59;7.70;99.90
6256;DHT22;3161;48.794;9.784;2023-12-22T08:45:28;7.70;99.90
6256;DHT22;3161;48.794;9.784;2023-12-22T08:47:56;7.60;99.90
6256;DHT22;3161;48.794;9.784;2023-12-22T08:50:24;7.50;99.90
6256;DHT22;3161;48.794;9.784;2023-12-22T08:52:52;7.40;99.90
6256;DHT22;3161;48.794;9.784;2023-12-22T08:55:20;7.30;99.90
6256;DHT22;3161;48.794;9.784;2023-12-22T08:57:47;7.20;99.90
6256;DHT22;3161;48.794;9.784;2023-12-22T09:00:15;7.10;99.90
6256;DHT22;3161;48.794;9.784;2023-12-22T09:02:42;7.00;99.90
6256;DHT22;3161;48.794;9.784;2023-12-22T09:05:10;7.10;99.90
6256;DHT22;3161;48.794;9.784;2023-12-22T09:07:38;7.00;99.90
6256;DHT22;3161;48.794;9.784;2023-12-22T09:10:06;7.00;99.90
6256;DHT22;3161;48.794;9.784;2023-12-22T09:12:34;7.00;99.90
6256;DHT22;3161;48.794;9.784;2023-12-22T09:15:01;6.90;99.90
6256;DHT22;3161;48.794;9.784;2023-12-22T09:17:30;6.90;99.90
6256;DHT22;3161;48.794;9.784;2023-12-22T09:19:57;6.90;99.90
6256;DHT22;3161;48.794;9.784;2023-12-22T09:22:25;6.90;99.90
6256;DHT22;3161;48.794;9.784;2023-12-22T09:24:52;6.90;99.90
6256;DHT22;3161;48.794;9.784;2023-12-22T09:27:20;6.90;99.90
6256;DHT22;3161;48.794;9.784;2023-12-22T09:29:47;6.90;99.90
6256;DHT22;3161;48.794;9.784;2023-12-22T09:32:15;6.90;99.90
6256;DHT22;3161;48.794;9.784;2023-12-22T09:34:43;6.90;99.90
6256;DHT22;3161;48.794;9.784;2023-12-22T09:37:10;6.90;99.90
6256;DHT22;3161;48.794;9.784;2023-12-22T09:39:38;6.90;99.90
6256;DHT22;3161;48.794;9.784;2023-12-22T09:42:06;6.90;99.90
6256;DHT22;3161;48.794;9.784;2023-12-22T09:44:35;6.90;99.90
6256;DHT22;3161;48.794;9.784;2023-12-22T09:47:04;6.90;99.90
6256;DHT22;3161;48.794;9.784;2023-12-22T09:49:34;6.90;99.90
6256;DHT22;3161;48.794;9.784;2023-12-22T09:52:02;6.80;99.90
6256;DHT22;3161;48.794;9.784;2023-12-22T09:54:32;6.90;99.90
6256;DHT22;3161;48.794;9.784;2023-12-22T09:57:00;6.90;99.90
6256;DHT22;3161;48.794;9.784;2023-12-22T09:59:29;6.90;99.90
6256;DHT22;3161;48.794;9.784;2023-12-22T10:01:57;7.00;99.90
6256;DHT22;3161;48.794;9.784;2023-12-22T10:04:27;7.00;99.90
6256;DHT22;3161;48.794;9.784;2023-12-22T10:06:58;7.00;99.90
6256;DHT22;3161;48.794;9.784;2023-12-22T10:09:27;7.00;99.90
6256;DHT22;3161;48.794;9.784;2023-12-22T10:11:57;7.00;99.90
6256;DHT22;3161;48.794;9.784;2023-12-22T10:14:26;7.00;99.90
6256;DHT22;3161;48.794;9.784;2023-12-22T10:16:54;7.00;99.90
6256;DHT22;3161;48.794;9.784;2023-12-22T10:19:22;7.00;99.90
6256;DHT22;3161;48.794;9.784;2023-12-22T10:21:50;7.10;99.90
6256;DHT22;3161;48.794;9.784;2023-12-22T10:24:39;7.10;99.90
6256;DHT22;3161;48.794;9.784;2023-12-22T10:27:09;7.10;99.90
6256;DHT22;3161;48.794;9.784;2023-12-22T10:29:38;7.10;99.90
6256;DHT22;3161;48.794;9.784;2023-12-22T10:32:07;7.00;99.90
6256;DHT22;3161;48.794;9.784;2023-12-22T10:34:35;7.10;99.90
6256;DHT22;3161;48.794;9.784;2023-12-22T10:37:09;7.10;99.90
6256;DHT22;3161;48.794;9.784;2023-12-22T10:39:39;7.10;99.90
6256;DHT22;3161;48.794;9.784;2023-12-22T10:42:08;7.20;99.90
6256;DHT22;3161;48.794;9.784;2023-12-22T10:44:40;7.20;99.90
6256;DHT22;3161;48.794;9.784;2023-12-22T10:47:08;7.20;99.90
6256;DHT22;3161;48.794;9.784;2023-12-22T10:49:37;7.20;99.90
6256;DHT22;3161;48.794;9.784;2023-12-22T10:52:04;7.30;99.90
6256;DHT22;3161;48.794;9.784;2023-12-22T10:54:32;7.30;99.90
6256;DHT22;3161;48.794;9.784;2023-12-22T10:57:00;7.30;99.90
6256;DHT22;3161;48.794;9.784;2023-12-22T10:59:29;7.40;99.90
6256;DHT22;3161;48.794;9.784;2023-12-22T11:01:58;7.50;99.90
6256;DHT22;3161;48.794;9.784;2023-12-22T11:04:34;7.50;99.90
6256;DHT22;3161;48.794;9.784;2023-12-22T11:07:04;7.60;99.90
6256;DHT22;3161;48.794;9.784;2023-12-22T11:09:34;7.60;99.90
6256;DHT22;3161;48.794;9.784;2023-12-22T11:12:03;7.60;99.90
6256;DHT22;3161;48.794;9.784;2023-12-22T11:14:33;7.60;99.90
6256;DHT22;3161;48.794;9.784;2023-12-22T11:17:02;7.60;99.90
6256;DHT22;3161;48.794;9.784;2023-12-22T11:19:33;7.70;99.90
6256;DHT22;3161;48.794;9.784;2023-12-22T11:22:02;7.70;99.90
6256;DHT22;3161;48.794;9.784;2023-12-22T11:24:31;7.70;99.90
6256;DHT22;3161;48.794;9.784;2023-12-22T11:27:00;7.60;99.90
6256;DHT22;3161;48.794;9.784;2023-12-22T11:29:29;7.60;99.90
6256;DHT22;3161;48.794;9.784;2023-12-22T11:31:58;7.60;99.90
6256;DHT22;3161;48.794;9.784;2023-12-22T11:34:28;7.70;99.90
6256;DHT22;3161;48.794;9.784;2023-12-22T11:36:57;7.70;99.90
6256;DHT22;3161;48.794;9.784;2023-12-22T11:39:26;7.70;99.90
6256;DHT22;3161;48.794;9.784;2023-12-22T11:41:54;7.70;99.90
6256;DHT22;3161;48.794;9.784;2023-12-22T11:44:23;7.70;99.90
6256;DHT22;3161;48.794;9.784;2023-12-22T11:47:08;7.70;99.90
6256;DHT22;3161;48.794;9.784;2023-12-22T11:49:37;7.70;99.90
6256;DHT22;3161;48.794;9.784;2023-12-22T11:52:15;7.80;99.90
6256;DHT22;3161;48.794;9.784;2023-12-22T11:54:55;7.90;99.90
6256;DHT22;3161;48.794;9.784;2023-12-22T11:57:35;7.90;99.90
6256;DHT22;3161;48.794;9.784;2023-12-22T12:00:09;7.90;99.90
6256;DHT22;3161;48.794;9.784;2023-12-22T12:02:35;7.90;99.90
6256;DHT22;3161;48.794;9.784;2023-12-22T12:05:05;7.90;99.90
6256;DHT22;3161;48.794;9.784;2023-12-22T12:07:45;8.00;99.90
6256;DHT22;3161;48.794;9.784;2023-12-22T12:13:08;8.00;99.90
6256;DHT22;3161;48.794;9.784;2023-12-22T12:15:36;8.00;99.90
6256;DHT22;3161;48.794;9.784;2023-12-22T12:18:05;8.00;99.90
6256;DHT22;3161;48.794;9.784;2023-12-22T12:20:33;8.00;99.90
6256;DHT22;3161;48.794;9.784;2023-12-22T12:23:05;8.00;99.90
6256;DHT22;3161;48.794;9.784;2023-12-22T12:25:33;8.00;99.90
6256;DHT22;3161;48.794;9.784;2023-12-22T12:28:05;7.90;99.90
6256;DHT22;3161;48.794;9.784;2023-12-22T12:30:34;7.90;99.90
6256;DHT22;3161;48.794;9.784;2023-12-22T12:33:09;7.90;99.90
6256;DHT22;3161;48.794;9.784;2023-12-22T12:35:41;7.80;99.90
6256;DHT22;3161;48.794;9.784;2023-12-22T12:38:10;7.90;99.90
6256;DHT22;3161;48.794;9.784;2023-12-22T12:40:40;7.80;99.90
6256;DHT22;3161;48.794;9.784;2023-12-22T12:43:07;7.80;99.90
6256;DHT22;3161;48.794;9.784;2023-12-22T12:45:35;7.80;99.90
6256;DHT22;3161;48.794;9.784;2023-12-22T12:48:03;7.80;99.90
6256;DHT22;3161;48.794;9.784;2023-12-22T12:50:31;7.80;99.90
6256;DHT22;3161;48.794;9.784;2023-12-22T12:52:59;7.80;99.90
6256;DHT22;3161;48.794;9.784;2023-12-22T12:55:27;7.80;99.90
6256;DHT22;3161;48.794;9.784;2023-12-22T12:57:55;7.70;99.90
6256;DHT22;3161;48.794;9.784;2023-12-22T13:00:30;7.70;99.90
6256;DHT22;3161;48.794;9.784;2023-12-22T13:03:03;7.70;99.90
6256;DHT22;3161;48.794;9.784;2023-12-22T13:05:32;7.60;99.90
6256;DHT22;3161;48.794;9.784;2023-12-22T13:08:10;7.60;99.90
6256;DHT22;3161;48.794;9.784;2023-12-22T13:10:39;7.60;99.90
6256;DHT22;3161;48.794;9.784;2023-12-22T13:13:07;7.60;99.90
6256;DHT22;3161;48.794;9.784;2023-12-22T13:15:35;7.60;99.90
6256;DHT22;3161;48.794;9.784;2023-12-22T13:18:02;7.60;99.90
6256;DHT22;3161;48.794;9.784;2023-12-22T13:20:30;7.60;99.90
6256;DHT22;3161;48.794;9.784;2023-12-22T13:22:58;7.60;99.90
6256;DHT22;3161;48.794;9.784;2023-12-22T13:25:26;7.60;99.90
6256;DHT22;3161;48.794;9.784;2023-12-22T13:27:53;7.60;99.90
6256;DHT22;3161;48.794;9.784;2023-12-22T13:30:36;7.60;99.90
6256;DHT22;3161;48.794;9.784;2023-12-22T13:33:06;7.60;99.90
6256;DHT22;3161;48.794;9.784;2023-12-22T13:35:37;7.70;99.90
6256;DHT22;3161;48.794;9.784;2023-12-22T13:38:07;7.60;99.90
6256;DHT22;3161;48.794;9.784;2023-12-22T13:40:36;7.60;99.90
6256;DHT22;3161;48.794;9.784;2023-12-22T13:43:05;7.60;99.90
6256;DHT22;3161;48.794;9.784;2023-12-22T13:45:33;7.70;99.90
6256;DHT22;3161;48.794;9.784;2023-12-22T13:48:01;7.70;99.90
6256;DHT22;3161;48.794;9.784;2023-12-22T13:50:29;7.70;99.90
6256;DHT22;3161;48.794;9.784;2023-12-22T13:52:57;7.70;99.90
6256;DHT22;3161;48.794;9.784;2023-12-22T13:55:25;7.70;99.90
6256;DHT22;3161;48.794;9.784;2023-12-22T13:58:00;7.70;99.90
6256;DHT22;3161;48.794;9.784;2023-12-22T14:00:29;7.70;99.90
6256;DHT22;3161;48.794;9.784;2023-12-22T14:02:58;7.70;99.90
6256;DHT22;3161;48.794;9.784;2023-12-22T14:05:25;7.60;99.90
6256;DHT22;3161;48.794;9.784;2023-12-22T14:07:55;7.70;99.90
6256;DHT22;3161;48.794;9.784;2023-12-22T14:10:22;7.70;99.90
6256;DHT22;3161;48.794;9.784;2023-12-22T14:12:50;7.70;99.90
6256;DHT22;3161;48.794;9.784;2023-12-22T14:15:18;7.70;99.90
6256;DHT22;3161;48.794;9.784;2023-12-22T14:17:45;7.70;99.90
6256;DHT22;3161;48.794;9.784;2023-12-22T14:20:13;7.80;99.90
6256;DHT22;3161;48.794;9.784;2023-12-22T14:22:41;7.80;99.90
6256;DHT22;3161;48.794;9.784;2023-12-22T14:25:08;7.80;99.90
6256;DHT22;3161;48.794;9.784;2023-12-22T14:27:36;7.80;99.90
6256;DHT22;3161;48.794;9.784;2023-12-22T14:30:04;7.90;99.90
6256;DHT22;3161;48.794;9.784;2023-12-22T14:32:32;8.00;99.90
6256;DHT22;3161;48.794;9.784;2023-12-22T14:35:00;8.10;99.90
6256;DHT22;3161;48.794;9.784;2023-12-22T14:37:27;8.20;99.90
6256;DHT22;3161;48.794;9.784;2023-12-22T14:39:55;8.30;99.90
6256;DHT22;3161;48.794;9.784;2023-12-22T14:42:22;8.30;99.90
6256;DHT22;3161;48.794;9.784;2023-12-22T14:44:50;8.40;99.90
6256;DHT22;3161;48.794;9.784;2023-12-22T14:47:17;8.50;99.90
6256;DHT22;3161;48.794;9.784;2023-12-22T14:49:45;8.50;99.90
6256;DHT22;3161;48.794;9.784;2023-12-22T14:52:12;8.60;99.90
6256;DHT22;3161;48.794;9.784;2023-12-22T14:54:40;8.60;99.90
6256;DHT22;3161;48.794;9.784;2023-12-22T14:57:07;8.70;99.90
6256;DHT22;3161;48.794;9.784;2023-12-22T14:59:35;8.80;99.90
6256;DHT22;3161;48.794;9.784;2023-12-22T15:02:02;8.80;99.90
6256;DHT22;3161;48.794;9.784;2023-12-22T15:04:32;8.90;99.90
6256;DHT22;3161;48.794;9.784;2023-12-22T15:06:59;8.90;99.90
6256;DHT22;3161;48.794;9.784;2023-12-22T15:09:28;9.00;99.90
6256;DHT22;3161;48.794;9.784;2023-12-22T15:11:56;9.00;99.90
6256;DHT22;3161;48.794;9.784;2023-12-22T15:14:23;9.10;99.90
6256;DHT22;3161;48.794;9.784;2023-12-22T15:16:51;9.10;99.90
6256;DHT22;3161;48.794;9.784;2023-12-22T15:19:19;9.10;99.90
6256;DHT22;3161;48.794;9.784;2023-12-22T15:21:46;9.10;99.90
6256;DHT22;3161;48.794;9.784;2023-12-22T15:24:14;9.20;99.90
6256;DHT22;3161;48.794;9.784;2023-12-22T15:26:42;9.20;99.90
6256;DHT22;3161;48.794;9.784;2023-12-22T15:29:10;9.20;99.90
6256;DHT22;3161;48.794;9.784;2023-12-22T15:31:38;9.20;99.90
6256;DHT22;3161;48.794;9.784;2023-12-22T15:34:05;9.30;99.90
6256;DHT22;3161;48.794;9.784;2023-12-22T15:36:33;9.30;99.90
6256;DHT22;3161;48.794;9.784;2023-12-22T15:39:00;9.20;99.90
6256;DHT22;3161;48.794;9.784;2023-12-22T15:41:29;9.20;99.90
6256;DHT22;3161;48.794;9.784;2023-12-22T15:43:57;9.30;99.90
6256;DHT22;3161;48.794;9.784;2023-12-22T15:46:24;9.30;99.90
6256;DHT22;3161;48.794;9.784;2023-12-22T15:48:52;9.30;99.90
6256;DHT22;3161;48.794;9.784;2023-12-22T15:51:20;9.30;99.90
6256;DHT22;3161;48.794;9.784;2023-12-22T15:53:47;9.30;99.90
6256;DHT22;3161;48.794;9.784;2023-12-22T15:56:15;9.30;99.90
6256;DHT22;3161;48.794;9.784;2023-12-22T15:58:43;9.30;99.90
6256;DHT22;3161;48.794;9.784;2023-12-22T16:01:11;9.40;99.90
6256;DHT22;3161;48.794;9.784;2023-12-22T16:03:41;9.40;99.90
6256;DHT22;3161;48.794;9.784;2023-12-22T16:06:09;9.40;99.90
6256;DHT22;3161;48.794;9.784;2023-12-22T16:08:37;9.40;99.90
6256;DHT22;3161;48.794;9.784;2023-12-22T16:11:05;9.40;99.90
6256;DHT22;3161;48.794;9.784;2023-12-22T16:13:33;9.40;99.90
6256;DHT22;3161;48.794;9.784;2023-12-22T16:16:01;9.40;99.90
6256;DHT22;3161;48.794;9.784;2023-12-22T16:18:29;9.50;99.90
6256;DHT22;3161;48.794;9.784;2023-12-22T16:20:57;9.50;99.90
6256;DHT22;3161;48.794;9.784;2023-12-22T16:23:24;9.50;99.90
6256;DHT22;3161;48.794;9.784;2023-12-22T16:25:54;9.40;99.90
6256;DHT22;3161;48.794;9.784;2023-12-22T16:28:23;9.50;99.90
6256;DHT22;3161;48.794;9.784;2023-12-22T16:30:50;9.50;99.90
6256;DHT22;3161;48.794;9.784;2023-12-22T16:33:19;9.50;99.90